MSC Mirjam — D5MF8 — position and weather

sailwx.info

Track history (hours):
 
Tides and Currents Weather Stations Pressure Air Temp Water Temp Dewpoint Dewpoint Depression Visibility Wind Speed Wind Dir Waves Ship Positions

MSC Mirjam

Last reported at 2017-Dec-13 17:36 UTC. Time now 2017-Dec-16 14:43 UTC.
Position N 35°38' E 016°29'.

Length 400 m; draft 15.3 m.

Type: Ship (hazmat cat A). MMSI: 636017684.

Date/timePositionNaut miles runAvg speedWind from/ knotsBaromVisibWave heightAir tempDewpointWater temp
2017-Dec-13 17:36N 35°38' E 016°29'5315.6
2017-Dec-13 14:14N 35°53' E 015°27'515.8
2017-Dec-13 13:56N 35°55' E 015°22'716.0
2017-Dec-13 13:30N 35°57' E 015°13'816.4
2017-Dec-13 13:01N 35°59' E 015°04'815.9
2017-Dec-13 12:30N 36°02' E 014°54'815.9
2017-Dec-13 12:00N 36°05' E 014°46'815.6
2017-Dec-13 11:30N 36°08' E 014°37'815.6
2017-Dec-13 11:00N 36°12' E 014°28'815.7
2017-Dec-13 10:31N 36°15' E 014°19'815.7
2017-Dec-13 10:01N 36°18' E 014°10'815.7
2017-Dec-13 09:30N 36°21' E 014°01'815.5
2017-Dec-13 09:00N 36°24' E 013°53'815.7
2017-Dec-13 08:30N 36°28' E 013°43'815.7
2017-Dec-13 08:00N 36°31' E 013°35'16815.6
2017-Dec-12 21:13N 37°33' E 010°19'  
2017-Dec-09 04:13N 37°59' W 009°54'417.3
2017-Dec-09 04:00N 38°02' W 009°55'917.4
2017-Dec-09 03:30N 38°11' W 009°57'917.3
2017-Dec-09 03:00N 38°19' W 009°60'917.3
2017-Dec-09 02:30N 38°28' W 010°02'917.4
2017-Dec-09 02:01N 38°36' W 010°05'816.8
2017-Dec-09 01:30N 38°44' W 010°07'917.2
2017-Dec-09 01:00N 38°53' W 010°07'917.6
2017-Dec-09 00:31N 39°02' W 010°07'917.8
2017-Dec-09 00:00N 39°11' W 010°07'917.5
2017-Dec-08 23:30N 39°19' W 010°07'917.3
2017-Dec-08 23:00N 39°28' W 010°07'1117.5
2017-Dec-08 22:24N 39°39' W 010°07'61717.6
2017-Dec-07 11:25N 49°13' W 004°52'6017.2
2017-Dec-07 07:57N 49°43' W 003°33'715.3
2017-Dec-07 07:28N 49°47' W 003°23'716.0
2017-Dec-07 07:00N 49°50' W 003°12'816.5
2017-Dec-07 06:30N 49°55' W 003°02'816.9
2017-Dec-07 06:00N 49°59' W 002°51'918.0
2017-Dec-07 05:30N 50°01' W 002°37'4820.0
2017-Dec-07 03:06N 50°13' W 001°24'3817.8
2017-Dec-07 00:59N 50°25' W 000°28'816.5
2017-Dec-07 00:30N 50°27' W 000°16'816.0
2017-Dec-07 00:00N 50°30' W 000°04'815.6
2017-Dec-06 23:30N 50°32' E 000°08'815.6
2017-Dec-06 23:00N 50°33' E 000°19'815.7
2017-Dec-06 22:30N 50°36' E 000°31'816.4
2017-Dec-06 22:00N 50°40' E 000°42'917.0
2017-Dec-06 21:30N 50°44' E 000°54'817.0
2017-Dec-06 21:00N 50°49' E 001°05'  
2017-Dec-04 09:38N 52°11' E 003°36'0 0.0
2017-Dec-04 09:26N 52°11' E 003°36'0 0.0
2017-Dec-04 08:53N 52°11' E 003°36'0 0.0
2017-Dec-04 08:26N 52°11' E 003°36'0 0.0
2017-Dec-04 07:29N 52°11' E 003°36'0 0.1
2017-Dec-04 06:56N 52°11' E 003°36'0 0.1
2017-Dec-04 06:29N 52°11' E 003°36'0 0.0
2017-Dec-04 05:56N 52°11' E 003°36'0 0.1
2017-Dec-04 05:25N 52°11' E 003°36'0 0.1
2017-Dec-04 04:59N 52°11' E 003°36'0 0.1
2017-Dec-04 04:29N 52°11' E 003°36'0 0.1
2017-Dec-04 03:58N 52°11' E 003°36'0 0.0
2017-Dec-04 03:29N 52°11' E 003°36'0 0.1
2017-Dec-04 02:59N 52°11' E 003°36'0 0.0
2017-Dec-04 02:29N 52°11' E 003°36'0 0.0
2017-Dec-04 01:59N 52°11' E 003°36'0 0.0
2017-Dec-04 01:26N 52°11' E 003°36'0 0.1
2017-Dec-04 00:59N 52°11' E 003°36'0 0.2
2017-Dec-04 00:28N 52°11' E 003°36'0 0.2
2017-Dec-03 23:59N 52°11' E 003°36'0 0.0
2017-Dec-03 23:26N 52°11' E 003°36'0 0.0
2017-Dec-03 22:58N 52°11' E 003°36'0 0.1
2017-Dec-03 22:20N 52°11' E 003°36'0 0.0
2017-Dec-03 21:58N 52°11' E 003°36'0 0.0
2017-Dec-03 21:28N 52°11' E 003°36'0 0.0
2017-Dec-03 20:59N 52°11' E 003°36'0 0.0
2017-Dec-03 19:52N 52°11' E 003°36'0 0.0
2017-Dec-03 19:29N 52°11' E 003°36'0 0.1
2017-Dec-03 18:44N 52°11' E 003°36'0 0.0
2017-Dec-03 18:26N 52°11' E 003°36'0 0.0
2017-Dec-03 17:52N 52°11' E 003°36'  
Track history (hours):
 
Tides and Currents Weather Stations Pressure Air Temp Water Temp Dewpoint Dewpoint Depression Visibility Wind Speed Wind Dir Waves Ship Positions

MSC Mirjam

Last reported at 2017-Dec-13 17:36 UTC. Time now 2017-Dec-16 14:43 UTC.
Position N 35°38' E 016°29'.

Length 400 m; draft 15.3 m.

Type: Ship (hazmat cat A). MMSI: 636017684.

Date/timePositionNaut miles runAvg speedWind from/ knotsBaromVisibWave heightAir tempDewpointWater temp
2017-Dec-13 17:36N 35°38' E 016°29'5315.6
2017-Dec-13 14:14N 35°53' E 015°27'515.8
2017-Dec-13 13:56N 35°55' E 015°22'716.0
2017-Dec-13 13:30N 35°57' E 015°13'816.4
2017-Dec-13 13:01N 35°59' E 015°04'815.9
2017-Dec-13 12:30N 36°02' E 014°54'815.9
2017-Dec-13 12:00N 36°05' E 014°46'815.6
2017-Dec-13 11:30N 36°08' E 014°37'815.6
2017-Dec-13 11:00N 36°12' E 014°28'815.7
2017-Dec-13 10:31N 36°15' E 014°19'815.7
2017-Dec-13 10:01N 36°18' E 014°10'815.7
2017-Dec-13 09:30N 36°21' E 014°01'815.5
2017-Dec-13 09:00N 36°24' E 013°53'815.7
2017-Dec-13 08:30N 36°28' E 013°43'815.7
2017-Dec-13 08:00N 36°31' E 013°35'16815.6
2017-Dec-12 21:13N 37°33' E 010°19'  
2017-Dec-09 04:13N 37°59' W 009°54'417.3
2017-Dec-09 04:00N 38°02' W 009°55'917.4
2017-Dec-09 03:30N 38°11' W 009°57'917.3
2017-Dec-09 03:00N 38°19' W 009°60'917.3
2017-Dec-09 02:30N 38°28' W 010°02'917.4
2017-Dec-09 02:01N 38°36' W 010°05'816.8
2017-Dec-09 01:30N 38°44' W 010°07'917.2
2017-Dec-09 01:00N 38°53' W 010°07'917.6
2017-Dec-09 00:31N 39°02' W 010°07'917.8
2017-Dec-09 00:00N 39°11' W 010°07'917.5
2017-Dec-08 23:30N 39°19' W 010°07'917.3
2017-Dec-08 23:00N 39°28' W 010°07'1117.5
2017-Dec-08 22:24N 39°39' W 010°07'61717.6
2017-Dec-07 11:25N 49°13' W 004°52'6017.2
2017-Dec-07 07:57N 49°43' W 003°33'715.3
2017-Dec-07 07:28N 49°47' W 003°23'716.0
2017-Dec-07 07:00N 49°50' W 003°12'816.5
2017-Dec-07 06:30N 49°55' W 003°02'816.9
2017-Dec-07 06:00N 49°59' W 002°51'918.0
2017-Dec-07 05:30N 50°01' W 002°37'4820.0
2017-Dec-07 03:06N 50°13' W 001°24'3817.8
2017-Dec-07 00:59N 50°25' W 000°28'816.5
2017-Dec-07 00:30N 50°27' W 000°16'816.0
2017-Dec-07 00:00N 50°30' W 000°04'815.6
2017-Dec-06 23:30N 50°32' E 000°08'815.6
2017-Dec-06 23:00N 50°33' E 000°19'815.7
2017-Dec-06 22:30N 50°36' E 000°31'816.4
2017-Dec-06 22:00N 50°40' E 000°42'917.0
2017-Dec-06 21:30N 50°44' E 000°54'817.0
2017-Dec-06 21:00N 50°49' E 001°05'  
2017-Dec-04 09:38N 52°11' E 003°36'0 0.0
2017-Dec-04 09:26N 52°11' E 003°36'0 0.0
2017-Dec-04 08:53N 52°11' E 003°36'0 0.0
2017-Dec-04 08:26N 52°11' E 003°36'0 0.0
2017-Dec-04 07:29N 52°11' E 003°36'0 0.1
2017-Dec-04 06:56N 52°11' E 003°36'0 0.1
2017-Dec-04 06:29N 52°11' E 003°36'0 0.0
2017-Dec-04 05:56N 52°11' E 003°36'0 0.1
2017-Dec-04 05:25N 52°11' E 003°36'0 0.1
2017-Dec-04 04:59N 52°11' E 003°36'0 0.1
2017-Dec-04 04:29N 52°11' E 003°36'0 0.1
2017-Dec-04 03:58N 52°11' E 003°36'0 0.0
2017-Dec-04 03:29N 52°11' E 003°36'0 0.1
2017-Dec-04 02:59N 52°11' E 003°36'0 0.0
2017-Dec-04 02:29N 52°11' E 003°36'0 0.0
2017-Dec-04 01:59N 52°11' E 003°36'0 0.0
2017-Dec-04 01:26N 52°11' E 003°36'0 0.1
2017-Dec-04 00:59N 52°11' E 003°36'0 0.2
2017-Dec-04 00:28N 52°11' E 003°36'0 0.2
2017-Dec-03 23:59N 52°11' E 003°36'0 0.0
2017-Dec-03 23:26N 52°11' E 003°36'0 0.0
2017-Dec-03 22:58N 52°11' E 003°36'0 0.1
2017-Dec-03 22:20N 52°11' E 003°36'0 0.0
2017-Dec-03 21:58N 52°11' E 003°36'0 0.0
2017-Dec-03 21:28N 52°11' E 003°36'0 0.0
2017-Dec-03 20:59N 52°11' E 003°36'0 0.0
2017-Dec-03 19:52N 52°11' E 003°36'0 0.0
2017-Dec-03 19:29N 52°11' E 003°36'0 0.1
2017-Dec-03 18:44N 52°11' E 003°36'0 0.0
2017-Dec-03 18:26N 52°11' E 003°36'0 0.0
2017-Dec-03 17:52N 52°11' E 003°36'  

Dump ship's entire track history